Time;durP1;ratioP1;P1;durP2;ratioP2;P2;SDS_P1;SDS_P2;PMS_P1;PMS_P2;Temp;Humidity;BMP_temperature;BMP_pressure;BME280_temperature;BME280_humidity;BME280_pressure;Samples;Min_cycle;Max_cycle;Signal;HPM_P1;HPM_P2
2024/04/07 00:01:33;;;;;;;4.10;0.52;;;19.20;73.60;;;;;;5060207;28;22021;-65
2024/04/07 00:04:03;;;;;;;3.33;0.52;;;19.20;73.90;;;;;;5053607;28;20188;-65
2024/04/07 00:06:31;;;;;;;5.68;0.60;;;19.10;74.10;;;;;;5083382;28;20140;-65
2024/04/07 00:08:56;;;;;;;2.67;0.40;;;19.00;74.70;;;;;;5075417;28;20116;-64
2024/04/07 00:11:23;;;;;;;3.05;0.30;;;19.00;74.70;;;;;;5061869;28;20136;-66
2024/04/07 00:13:48;;;;;;;2.20;0.40;;;19.00;74.50;;;;;;5081701;28;20063;-65
2024/04/07 00:16:14;;;;;;;2.17;0.40;;;18.90;74.90;;;;;;5075936;28;20065;-65
2024/04/07 00:18:47;;;;;;;2.05;0.30;;;18.90;74.90;;;;;;5047143;28;20071;-64
2024/04/07 00:21:12;;;;;;;2.45;0.45;;;18.90;74.80;;;;;;5032363;28;20123;-65
2024/04/07 00:23:38;;;;;;;2.33;0.50;;;18.90;74.50;;;;;;5068934;28;20139;-64
2024/04/07 00:26:04;;;;;;;2.97;0.40;;;18.90;74.50;;;;;;5044178;28;20033;-65
2024/04/07 00:28:30;;;;;;;2.13;0.40;;;18.90;74.60;;;;;;5047466;28;20048;-65
2024/04/07 00:30:56;;;;;;;2.58;0.47;;;18.90;74.50;;;;;;5087845;28;20036;-65
2024/04/07 00:33:21;;;;;;;3.83;0.40;;;18.90;74.30;;;;;;5098802;28;20042;-65
2024/04/07 00:36:00;;;;;;;2.55;0.40;;;18.90;74.00;;;;;;5089152;28;20062;-64
2024/04/07 00:38:26;;;;;;;3.08;0.50;;;18.90;74.00;;;;;;5092733;28;20438;-65
2024/04/07 00:40:56;;;;;;;1.65;0.30;;;18.90;74.50;;;;;;5094484;28;20515;-64
2024/04/07 00:43:23;;;;;;;4.97;0.40;;;18.80;74.40;;;;;;5081881;28;20040;-64
2024/04/07 00:45:49;;;;;;;3.28;0.43;;;18.80;74.50;;;;;;5097692;28;20050;-64
2024/04/07 00:48:17;;;;;;;1.70;0.35;;;18.80;74.50;;;;;;5091020;28;20035;-64
2024/04/07 00:50:44;;;;;;;1.45;0.40;;;18.70;74.50;;;;;;5078355;28;20044;-64
2024/04/07 00:53:10;;;;;;;2.22;0.40;;;18.70;74.70;;;;;;5074982;28;20063;-64
2024/04/07 00:55:36;;;;;;;1.10;0.22;;;18.70;74.70;;;;;;5077146;28;20106;-63
2024/04/07 00:58:02;;;;;;;2.38;0.40;;;18.70;74.80;;;;;;5078463;28;20491;-64
2024/04/07 01:00:29;;;;;;;2.60;0.40;;;18.70;74.90;;;;;;5069604;28;20036;-64
2024/04/07 01:02:55;;;;;;;1.70;0.47;;;18.70;75.00;;;;;;5057519;28;20056;-64
2024/04/07 01:05:20;;;;;;;2.42;0.50;;;18.60;74.90;;;;;;5050602;28;20187;-65
2024/04/07 01:07:47;;;;;;;2.92;0.40;;;18.60;75.20;;;;;;5044136;28;20060;-65
2024/04/07 01:10:18;;;;;;;3.58;0.40;;;18.60;75.10;;;;;;5060050;28;20048;-65
2024/04/07 01:12:53;;;;;;;1.88;0.30;;;18.60;75.30;;;;;;5082424;28;20040;-66
2024/04/07 01:15:19;;;;;;;1.80;0.38;;;18.60;75.10;;;;;;5080093;28;20360;-66
2024/04/07 01:17:45;;;;;;;3.63;0.40;;;18.60;75.00;;;;;;5082028;28;20062;-66
2024/04/07 01:20:13;;;;;;;2.00;0.40;;;18.60;75.10;;;;;;5062823;28;20042;-66
2024/04/07 01:22:39;;;;;;;1.20;0.30;;;18.50;75.50;;;;;;5073316;28;20028;-65
2024/04/07 01:25:04;;;;;;;2.08;0.20;;;18.50;75.80;;;;;;5089595;28;20065;-66
2024/04/07 01:27:30;;;;;;;2.58;0.30;;;18.50;75.70;;;;;;5053202;28;20471;-65
2024/04/07 01:29:57;;;;;;;1.88;0.38;;;18.50;75.90;;;;;;5050638;28;20040;-65
2024/04/07 01:32:22;;;;;;;2.10;0.40;;;18.50;76.10;;;;;;5077284;28;20032;-65
2024/04/07 01:34:48;;;;;;;2.75;0.50;;;18.40;76.10;;;;;;5086407;28;20492;-66
2024/04/07 01:37:14;;;;;;;3.05;0.40;;;18.40;76.20;;;;;;5061505;28;20036;-65
2024/04/07 01:39:40;;;;;;;3.10;0.50;;;18.30;76.60;;;;;;5082121;28;20043;-66
2024/04/07 01:42:05;;;;;;;3.45;0.50;;;18.30;76.70;;;;;;5091068;28;20096;-65
2024/04/07 01:44:31;;;;;;;3.03;0.43;;;18.30;77.00;;;;;;5075076;28;20036;-65
2024/04/07 01:46:56;;;;;;;2.03;0.40;;;18.30;76.80;;;;;;5074501;28;20388;-66
2024/04/07 01:49:22;;;;;;;4.07;0.60;;;18.30;76.80;;;;;;5104857;28;20407;-66
2024/04/07 01:51:47;;;;;;;1.90;0.40;;;18.30;76.80;;;;;;5109229;28;20331;-65
2024/04/07 01:54:13;;;;;;;1.48;0.38;;;18.30;77.50;;;;;;5109887;28;20031;-65
2024/04/07 01:56:38;;;;;;;3.97;0.47;;;18.30;76.80;;;;;;5110098;28;20039;-66
2024/04/07 01:59:04;;;;;;;1.90;0.40;;;18.30;77.30;;;;;;5107516;28;20623;-66
2024/04/07 02:01:30;;;;;;;1.67;0.43;;;18.20;77.70;;;;;;5115321;28;20529;-65
2024/04/07 02:03:55;;;;;;;2.28;0.40;;;18.20;77.90;;;;;;5113140;27;20072;-65
2024/04/07 02:06:21;;;;;;;2.60;0.38;;;18.20;77.90;;;;;;5091943;28;20089;-65
2024/04/07 02:08:46;;;;;;;2.20;0.47;;;18.20;77.80;;;;;;5112855;27;20028;-64
2024/04/07 02:11:18;;;;;;;3.72;0.70;;;18.20;77.90;;;;;;5111263;28;20043;-65
2024/04/07 02:13:51;;;;;;;3.42;0.45;;;18.20;78.10;;;;;;5115209;28;20039;-65
2024/04/07 02:16:17;;;;;;;3.45;0.50;;;18.20;77.90;;;;;;5116660;27;20497;-66
2024/04/07 02:18:42;;;;;;;1.88;0.40;;;18.20;77.80;;;;;;5113258;27;20130;-65
2024/04/07 02:21:09;;;;;;;3.35;0.50;;;18.20;78.20;;;;;;5113825;28;20035;-65
2024/04/07 02:23:34;;;;;;;2.60;0.40;;;18.10;78.00;;;;;;5095822;28;20082;-66
2024/04/07 02:26:00;;;;;;;2.53;0.52;;;18.10;78.80;;;;;;5111342;27;20402;-66
2024/04/07 02:28:25;;;;;;;1.67;0.30;;;18.10;79.10;;;;;;5110932;28;20023;-65
2024/04/07 02:30:51;;;;;;;2.10;0.45;;;18.00;79.10;;;;;;5109972;28;20059;-65
2024/04/07 02:33:25;;;;;;;3.50;0.55;;;18.00;79.20;;;;;;5103597;28;20088;-64
2024/04/07 02:35:59;;;;;;;2.17;0.40;;;18.00;79.10;;;;;;5114332;28;20066;-65
2024/04/07 02:38:24;;;;;;;4.63;0.50;;;18.00;78.80;;;;;;5111774;28;20035;-66
2024/04/07 02:40:50;;;;;;;4.35;0.40;;;18.00;79.10;;;;;;5114458;28;20031;-65
2024/04/07 02:43:15;;;;;;;4.32;0.50;;;18.00;79.10;;;;;;5110653;28;20035;-65
2024/04/07 02:48:25;;;;;;;2.22;0.40;;;18.00;79.50;;;;;;5086354;28;20123;-65
2024/04/07 02:50:51;;;;;;;4.00;0.50;;;18.00;79.60;;;;;;5111780;28;20449;-65
2024/04/07 02:53:17;;;;;;;2.95;0.43;;;18.00;79.40;;;;;;5094563;28;20036;-65
2024/04/07 02:55:49;;;;;;;1.95;0.40;;;18.00;79.30;;;;;;5099285;28;20035;-65
2024/04/07 02:58:15;;;;;;;1.65;0.35;;;18.00;79.50;;;;;;5101950;28;20093;-65
2024/04/07 03:00:40;;;;;;;3.58;0.50;;;18.00;79.50;;;;;;5097035;28;20425;-62
2024/04/07 03:03:06;;;;;;;3.25;0.60;;;18.00;79.30;;;;;;5092646;28;20032;-66
2024/04/07 03:05:32;;;;;;;1.13;0.40;;;18.10;79.50;;;;;;5097070;28;20048;-65
2024/04/07 03:07:57;;;;;;;3.15;0.50;;;18.00;79.40;;;;;;5101202;28;20051;-65
2024/04/07 03:10:23;;;;;;;2.72;0.47;;;18.00;79.10;;;;;;5068258;28;20036;-65
2024/04/07 03:12:48;;;;;;;3.92;0.50;;;18.00;79.20;;;;;;5088421;28;20669;-65
2024/04/07 03:15:14;;;;;;;2.25;0.45;;;18.00;80.00;;;;;;5101773;28;20406;-65
2024/04/07 03:17:39;;;;;;;1.95;0.40;;;18.00;79.50;;;;;;5088076;28;20514;-65
2024/04/07 03:20:07;;;;;;;2.15;0.30;;;18.00;79.30;;;;;;5083266;28;20035;-65
2024/04/07 03:22:32;;;;;;;;;;;18.00;79.30;;;;;;5078190;28;20078;-66
2024/04/07 03:24:58;;;;;;;4.20;0.40;;;18.00;79.20;;;;;;5084631;28;19916;-66
2024/04/07 03:27:24;;;;;;;3.92;0.50;;;17.90;79.30;;;;;;5081879;28;20032;-66
2024/04/07 03:29:49;;;;;;;2.83;0.38;;;17.90;79.70;;;;;;5070582;28;20383;-65
2024/04/07 03:32:15;;;;;;;3.92;0.50;;;17.80;80.40;;;;;;5068503;28;20463;-64
2024/04/07 03:34:41;;;;;;;3.25;0.50;;;17.80;79.80;;;;;;5085212;28;20052;-66
2024/04/07 03:37:06;;;;;;;2.47;0.47;;;17.80;79.60;;;;;;5090686;28;20107;-65
2024/04/07 03:39:33;;;;;;;0.93;0.20;;;17.80;79.30;;;;;;5054111;28;20127;-66
2024/04/07 03:41:58;;;;;;;4.22;0.50;;;17.80;78.90;;;;;;5062454;28;20410;-66
2024/04/07 03:44:25;;;;;;;1.92;0.40;;;17.80;78.60;;;;;;5100990;28;20044;-65
2024/04/07 03:46:50;;;;;;;1.27;0.30;;;17.90;78.90;;;;;;5105862;28;20085;-65
2024/04/07 03:49:16;;;;;;;4.22;0.60;;;17.80;78.50;;;;;;5090375;28;20028;-65
2024/04/07 03:51:42;;;;;;;3.13;0.45;;;17.90;78.50;;;;;;5082664;28;20047;-66
2024/04/07 03:54:13;;;;;;;4.85;0.50;;;17.90;78.60;;;;;;5094172;28;20058;-64
2024/04/07 03:56:39;;;;;;;3.72;0.43;;;17.90;78.40;;;;;;5091509;28;20047;-65
2024/04/07 03:59:04;;;;;;;5.45;0.30;;;17.90;78.40;;;;;;5097433;28;20093;-66
2024/04/07 04:01:31;;;;;;;4.20;0.40;;;18.00;78.50;;;;;;5094159;28;20027;-65
2024/04/07 04:03:57;;;;;;;1.38;0.35;;;17.90;78.40;;;;;;5087606;28;20036;-65
2024/04/07 04:06:22;;;;;;;1.33;0.40;;;18.00;78.40;;;;;;5092162;28;20533;-65
2024/04/07 04:08:48;;;;;;;3.90;0.55;;;17.90;78.20;;;;;;5095059;28;20064;-66
2024/04/07 04:11:13;;;;;;;2.15;0.30;;;17.90;78.00;;;;;;5070396;28;20032;-65
2024/04/07 04:13:39;;;;;;;6.18;0.57;;;17.90;77.90;;;;;;5081455;28;20054;-65
2024/04/07 04:16:05;;;;;;;1.98;0.35;;;17.90;77.90;;;;;;5076166;28;20071;-65
2024/04/07 04:18:32;;;;;;;1.52;0.35;;;17.90;77.90;;;;;;5068266;28;20028;-65
2024/04/07 04:20:57;;;;;;;5.28;0.50;;;17.90;78.00;;;;;;5083290;28;20031;-66
2024/04/07 04:23:29;;;;;;;2.95;0.40;;;17.90;77.70;;;;;;5084631;28;20046;-64
2024/04/07 04:25:56;;;;;;;3.47;0.50;;;17.90;77.50;;;;;;5084959;28;20032;-66
2024/04/07 04:28:22;;;;;;;2.55;0.45;;;18.00;77.30;;;;;;5106472;28;20226;-65
2024/04/07 04:30:55;;;;;;;1.52;0.20;;;18.00;77.20;;;;;;5116368;28;20044;-65
2024/04/07 04:33:22;;;;;;;5.03;0.40;;;18.00;77.10;;;;;;5111967;28;20047;-65
2024/04/07 04:35:49;;;;;;;3.15;0.30;;;17.90;76.80;;;;;;5112856;27;20490;-65
2024/04/07 04:38:15;;;;;;;1.73;0.38;;;17.90;76.80;;;;;;5092270;28;20055;-64
2024/04/07 04:40:41;;;;;;;2.45;0.50;;;18.00;76.90;;;;;;5094250;28;20115;-65
2024/04/07 04:43:07;;;;;;;2.22;0.47;;;17.90;76.80;;;;;;5079566;28;20028;-65
2024/04/07 04:45:33;;;;;;;3.85;0.40;;;18.00;76.60;;;;;;5090112;28;20048;-65
2024/04/07 04:48:00;;;;;;;2.15;0.30;;;18.00;75.90;;;;;;5078518;28;20040;-65
2024/04/07 04:50:26;;;;;;;1.65;0.30;;;18.00;74.90;;;;;;5086282;28;20039;-65
2024/04/07 04:52:51;;;;;;;3.88;0.30;;;18.10;75.20;;;;;;5090873;28;20077;-65
2024/04/07 04:55:17;;;;;;;4.03;0.60;;;18.10;75.30;;;;;;5100225;28;20481;-65
2024/04/07 04:57:43;;;;;;;2.05;0.30;;;18.10;75.10;;;;;;5097600;28;20746;-65
2024/04/07 05:00:10;;;;;;;4.03;0.30;;;18.10;75.10;;;;;;5105780;28;20386;-65
2024/04/07 05:02:36;;;;;;;3.85;0.28;;;18.10;74.40;;;;;;5100677;28;20034;-65
2024/04/07 05:05:02;;;;;;;0.60;0.10;;;18.20;73.10;;;;;;5108426;28;20036;-65
2024/04/07 05:07:28;;;;;;;2.17;0.13;;;18.20;72.40;;;;;;5111535;28;20062;-65
2024/04/07 05:09:54;;;;;;;1.15;0.28;;;18.20;71.80;;;;;;5113981;28;20458;-65
2024/04/07 05:12:25;;;;;;;3.95;0.32;;;18.20;72.10;;;;;;5111595;28;20053;-65
2024/04/07 05:14:51;;;;;;;1.48;0.30;;;18.20;72.20;;;;;;5106639;28;20024;-66
2024/04/07 05:17:17;;;;;;;3.38;0.40;;;18.20;72.20;;;;;;5095393;28;20123;-64
2024/04/07 05:19:42;;;;;;;5.25;0.43;;;18.30;72.40;;;;;;5082616;28;20094;-65
2024/04/07 05:22:08;;;;;;;3.67;0.38;;;18.40;72.80;;;;;;5099835;28;20095;-64
2024/04/07 05:24:33;;;;;;;2.08;0.40;;;18.50;73.00;;;;;;5116416;28;20027;-65
2024/04/07 05:27:03;;;;;;;1.30;0.25;;;18.50;73.40;;;;;;5086592;28;20032;-64
2024/04/07 05:29:29;;;;;;;4.13;0.50;;;18.50;73.50;;;;;;5104860;28;20030;-64
2024/04/07 05:31:54;;;;;;;4.45;0.45;;;18.60;73.40;;;;;;5117918;28;20019;-64
2024/04/07 05:34:20;;;;;;;3.03;0.30;;;18.60;73.40;;;;;;5108453;28;20034;-65
2024/04/07 05:36:52;;;;;;;2.33;0.40;;;18.50;73.30;;;;;;5093169;28;20047;-65
2024/04/07 05:39:18;;;;;;;1.02;0.30;;;18.60;73.60;;;;;;5092264;28;20031;-64
2024/04/07 05:41:44;;;;;;;5.50;0.40;;;18.60;72.90;;;;;;5115330;28;20027;-64
2024/04/07 05:44:09;;;;;;;2.95;0.40;;;18.70;73.20;;;;;;5102781;28;20093;-65
2024/04/07 05:46:35;;;;;;;2.78;0.30;;;18.70;73.90;;;;;;5124177;28;20043;-64
2024/04/07 05:49:00;;;;;;;2.83;0.30;;;18.70;74.60;;;;;;5122945;28;20023;-64
2024/04/07 05:51:26;;;;;;;2.92;0.40;;;18.70;74.40;;;;;;5125224;27;20035;-64
2024/04/07 05:53:52;;;;;;;3.72;0.30;;;18.70;74.30;;;;;;5111072;28;20640;-64
2024/04/07 05:56:18;;;;;;;2.15;0.40;;;18.70;74.30;;;;;;5101132;28;20325;-64
2024/04/07 05:58:43;;;;;;;2.95;0.30;;;18.70;74.30;;;;;;5100582;28;20478;-65
2024/04/07 06:01:09;;;;;;;2.00;0.40;;;18.70;74.70;;;;;;5095536;28;20031;-64
2024/04/07 06:03:35;;;;;;;3.20;0.40;;;18.80;74.90;;;;;;5096327;28;20039;-64
2024/04/07 06:06:04;;;;;;;3.13;0.40;;;18.80;74.90;;;;;;5096842;28;20040;-64
2024/04/07 06:08:29;;;;;;;1.48;0.28;;;18.90;74.70;;;;;;5099218;28;20112;-64
2024/04/07 06:10:55;;;;;;;3.70;0.45;;;19.00;74.30;;;;;;5102244;28;20455;-64
2024/04/07 06:13:21;;;;;;;3.53;0.40;;;19.00;74.30;;;;;;5099141;28;20051;-64
2024/04/07 06:15:46;;;;;;;2.33;0.38;;;19.00;74.00;;;;;;5103816;28;20040;-64
2024/04/07 06:18:12;;;;;;;4.22;0.40;;;19.00;73.70;;;;;;5093042;28;20473;-64
2024/04/07 06:20:38;;;;;;;2.38;0.30;;;19.10;73.90;;;;;;5069231;28;20123;-65
2024/04/07 06:23:09;;;;;;;3.85;0.30;;;19.10;74.10;;;;;;5049395;28;20037;-64
2024/04/07 06:25:35;;;;;;;2.72;0.30;;;19.10;74.30;;;;;;5050455;28;20506;-64
2024/04/07 06:28:01;;;;;;;3.70;0.50;;;19.20;74.20;;;;;;5050231;28;20028;-64
2024/04/07 06:30:26;;;;;;;4.93;0.50;;;19.20;74.50;;;;;;5065808;28;20048;-64
2024/04/07 06:32:52;;;;;;;3.45;0.40;;;19.30;72.70;;;;;;5100880;28;20159;-64
2024/04/07 06:35:23;;;;;;;2.95;0.40;;;19.30;73.40;;;;;;5096400;28;20043;-63
2024/04/07 06:37:55;;;;;;;5.30;0.28;;;19.40;72.40;;;;;;5084138;28;20024;-65
2024/04/07 06:40:21;;;;;;;1.08;0.10;;;19.40;73.20;;;;;;5077407;28;20041;-64
2024/04/07 06:42:46;;;;;;;6.63;0.50;;;19.50;73.10;;;;;;5056988;28;20139;-65
2024/04/07 06:45:12;;;;;;;2.33;0.30;;;19.50;72.30;;;;;;5056093;28;20135;-64
2024/04/07 06:47:38;;;;;;;0.77;0.10;;;19.60;72.70;;;;;;5052413;28;20037;-64
2024/04/07 06:50:05;;;;;;;2.75;0.38;;;19.60;73.00;;;;;;5056934;28;20528;-63
2024/04/07 06:52:30;;;;;;;1.52;0.38;;;19.70;73.20;;;;;;5098553;28;20040;-65
2024/04/07 06:54:56;;;;;;;2.60;0.30;;;19.90;72.50;;;;;;5116153;28;20094;-65
2024/04/07 06:57:21;;;;;;;1.95;0.30;;;20.00;73.00;;;;;;5116683;28;20040;-65
2024/04/07 06:59:49;;;;;;;2.00;0.20;;;20.20;73.60;;;;;;5089359;28;20039;-64
2024/04/07 07:02:16;;;;;;;4.70;0.30;;;20.30;73.50;;;;;;5107376;28;20039;-65
2024/04/07 07:04:41;;;;;;;2.35;0.40;;;20.50;72.50;;;;;;5089803;28;20067;-65
2024/04/07 07:07:07;;;;;;;3.42;0.43;;;20.60;72.20;;;;;;5095011;28;20128;-66
2024/04/07 07:09:40;;;;;;;4.80;0.35;;;20.70;73.10;;;;;;5106272;28;20429;-65
2024/04/07 07:12:05;;;;;;;2.47;0.28;;;20.80;71.80;;;;;;5101971;28;20425;-63
2024/04/07 07:14:31;;;;;;;2.88;0.30;;;20.90;70.40;;;;;;5110041;28;20042;-64
2024/04/07 07:16:56;;;;;;;1.80;0.30;;;20.90;70.70;;;;;;5110433;28;20019;-65
2024/04/07 07:19:22;;;;;;;4.07;0.40;;;21.10;69.90;;;;;;5115714;28;20028;-64
2024/04/07 07:21:48;;;;;;;2.90;0.30;;;21.10;70.30;;;;;;5112953;28;20055;-64
2024/04/07 07:24:14;;;;;;;1.33;0.15;;;21.20;69.60;;;;;;5118617;28;20074;-65
2024/04/07 07:26:39;;;;;;;2.58;0.30;;;21.20;69.90;;;;;;5115156;28;20118;-65
2024/04/07 07:29:12;;;;;;;1.85;0.30;;;21.30;69.10;;;;;;5109247;28;20048;-65
2024/04/07 07:31:38;;;;;;;2.47;0.20;;;21.30;70.20;;;;;;5111144;28;20108;-65
2024/04/07 07:34:04;;;;;;;2.58;0.20;;;21.30;68.80;;;;;;5097634;28;20072;-63
2024/04/07 07:36:29;;;;;;;2.25;0.20;;;21.30;68.80;;;;;;5080323;28;20035;-65
2024/04/07 07:38:55;;;;;;;3.28;0.20;;;21.30;69.40;;;;;;5081209;28;20073;-66
2024/04/07 07:41:20;;;;;;;2.03;0.20;;;21.30;69.40;;;;;;5095096;28;20031;-65
2024/04/07 07:43:46;;;;;;;2.60;0.22;;;21.20;69.30;;;;;;5107303;28;20030;-65
2024/04/07 07:46:12;;;;;;;3.55;0.30;;;21.10;69.80;;;;;;5108827;28;20051;-65
2024/04/07 07:48:39;;;;;;;1.73;0.35;;;21.20;69.90;;;;;;5110814;28;20331;-65
2024/04/07 07:51:09;;;;;;;;;;;21.20;69.30;;;;;;5108969;28;20062;-65
2024/04/07 07:53:35;;;;;;;2.20;0.32;;;21.20;70.60;;;;;;5098292;28;19919;-65
2024/04/07 07:56:07;;;;;;;2.63;0.30;;;21.30;71.70;;;;;;5100236;28;20430;-65
2024/04/07 07:58:35;;;;;;;2.88;0.30;;;21.30;72.40;;;;;;5102644;28;20028;-66
2024/04/07 08:01:00;;;;;;;1.50;0.20;;;21.20;69.90;;;;;;5077263;28;20153;-66
2024/04/07 08:03:26;;;;;;;1.45;0.10;;;21.10;70.50;;;;;;5084481;28;20427;-66
2024/04/07 08:05:52;;;;;;;2.47;0.32;;;21.00;70.80;;;;;;5086221;28;20157;-66
2024/04/07 08:08:19;;;;;;;4.63;0.32;;;21.00;71.00;;;;;;5088145;28;20028;-65
2024/04/07 08:10:44;;;;;;;;;;;20.90;71.50;;;;;;5080165;28;20063;-65
2024/04/07 08:13:10;;;;;;;2.30;0.28;;;20.90;71.60;;;;;;5075023;28;20378;-65
2024/04/07 08:15:43;;;;;;;1.98;0.25;;;20.90;71.80;;;;;;5094899;28;20047;-65
2024/04/07 08:18:09;;;;;;;1.50;0.30;;;20.90;72.10;;;;;;5085781;28;20378;-65
2024/04/07 08:20:36;;;;;;;4.05;0.30;;;21.00;72.40;;;;;;5097811;28;20032;-66
2024/04/07 08:23:01;;;;;;;2.28;0.25;;;21.10;72.40;;;;;;5095535;28;20019;-66
2024/04/07 08:25:27;;;;;;;4.68;0.38;;;21.20;73.00;;;;;;5080380;28;20501;-66
2024/04/07 08:27:53;;;;;;;3.83;0.30;;;21.30;72.90;;;;;;5074749;28;20066;-66
2024/04/07 08:30:18;;;;;;;1.88;0.20;;;21.30;72.60;;;;;;5094227;28;20218;-65
2024/04/07 08:32:51;;;;;;;4.05;0.35;;;21.40;72.50;;;;;;5097622;28;20130;-66
2024/04/07 08:35:16;;;;;;;3.65;0.32;;;21.40;73.80;;;;;;5065731;28;20487;-64
2024/04/07 08:37:42;;;;;;;2.35;0.35;;;21.40;73.90;;;;;;5077412;28;20055;-65
2024/04/07 08:40:08;;;;;;;1.92;0.32;;;21.40;74.10;;;;;;5087139;28;20032;-66
2024/04/07 08:42:34;;;;;;;4.85;0.45;;;21.40;74.80;;;;;;5099113;28;20759;-65
2024/04/07 08:45:03;;;;;;;1.60;0.30;;;21.50;75.90;;;;;;5098162;28;20611;-65
2024/04/07 08:47:30;;;;;;;4.18;0.30;;;21.50;75.90;;;;;;5101467;28;20483;-66
2024/04/07 08:49:56;;;;;;;6.40;0.50;;;21.50;76.30;;;;;;5106967;28;20127;-65
2024/04/07 08:52:23;;;;;;;6.50;0.43;;;21.50;76.90;;;;;;5105587;28;20472;-66
2024/04/07 08:54:49;;;;;;;3.85;0.43;;;21.50;76.90;;;;;;5108623;28;20036;-66
2024/04/07 08:57:15;;;;;;;2.83;0.40;;;21.60;77.20;;;;;;5108316;28;20042;-63
2024/04/07 08:59:41;;;;;;;2.53;0.32;;;21.60;77.30;;;;;;5111697;28;20043;-66
2024/04/07 09:02:09;;;;;;;2.53;0.38;;;21.70;77.10;;;;;;5128373;28;20050;-65
2024/04/07 09:04:35;;;;;;;11.05;0.82;;;21.80;76.20;;;;;;5120801;28;20027;-66
2024/04/07 09:07:03;;;;;;;1.70;0.32;;;21.90;75.30;;;;;;5115724;28;20032;-66
2024/04/07 09:09:33;;;;;;;2.05;0.20;;;22.00;75.70;;;;;;5120801;28;20047;-66
2024/04/07 09:11:59;;;;;;;4.70;0.45;;;22.00;76.10;;;;;;5123104;27;20063;-66
2024/04/07 09:14:26;;;;;;;4.20;0.50;;;22.10;76.30;;;;;;5120142;28;20407;-66
2024/04/07 09:17:07;;;;;;;2.92;0.30;;;22.20;74.00;;;;;;5098558;28;20478;-65
2024/04/07 09:19:37;;;;;;;3.58;0.30;;;22.30;74.40;;;;;;5098611;28;20478;-66
2024/04/07 09:22:04;;;;;;;3.45;0.20;;;22.30;70.00;;;;;;5128475;28;20031;-66
2024/04/07 09:24:32;;;;;;;2.85;0.38;;;22.40;70.40;;;;;;5111958;28;20031;-65
2024/04/07 09:26:59;;;;;;;3.30;0.35;;;22.30;71.00;;;;;;5110309;28;20040;-66
2024/04/07 09:29:28;;;;;;;4.43;0.47;;;22.40;71.60;;;;;;5095087;28;20482;-67
2024/04/07 09:31:54;;;;;;;5.30;0.40;;;22.40;72.20;;;;;;5095490;28;20031;-66
2024/04/07 09:34:19;;;;;;;8.75;0.60;;;22.50;72.60;;;;;;5082347;28;20040;-67
2024/04/07 09:36:45;;;;;;;3.75;0.43;;;22.60;70.80;;;;;;5102265;28;20027;-67
2024/04/07 09:39:11;;;;;;;3.65;0.30;;;22.60;70.70;;;;;;5121232;28;20027;-67
2024/04/07 09:41:37;;;;;;;8.77;0.50;;;22.60;71.50;;;;;;5124598;28;20512;-66
2024/04/07 09:44:10;;;;;;;2.78;0.25;;;22.60;71.70;;;;;;5104738;28;20134;-66
2024/04/07 09:46:40;;;;;;;5.20;0.30;;;22.60;71.20;;;;;;5097186;28;20110;-66
2024/04/07 09:49:12;;;;;;;2.42;0.30;;;22.70;71.80;;;;;;5083953;28;20031;-67
2024/04/07 09:51:54;;;;;;;2.58;0.30;;;22.70;70.80;;;;;;5095897;28;20039;-65
2024/04/07 09:54:39;;;;;;;12.60;0.80;;;22.70;69.00;;;;;;5104796;28;20023;-67
2024/04/07 09:57:10;;;;;;;5.35;0.40;;;22.70;69.10;;;;;;5097272;28;20115;-67
2024/04/07 09:59:43;;;;;;;4.63;0.40;;;22.60;70.30;;;;;;5110683;28;20420;-66
2024/04/07 10:02:13;;;;;;;3.38;0.22;;;22.60;69.20;;;;;;5099569;28;20113;-67
2024/04/07 10:04:40;;;;;;;3.33;0.38;;;22.60;69.80;;;;;;5078574;28;20036;-65
2024/04/07 10:07:08;;;;;;;5.18;0.50;;;22.60;70.20;;;;;;5083937;28;20036;-67
2024/04/07 10:09:35;;;;;;;9.45;0.60;;;22.60;70.90;;;;;;5100634;27;20114;-66
2024/04/07 10:12:01;;;;;;;3.80;0.50;;;22.70;70.10;;;;;;5101048;28;20024;-67
2024/04/07 10:14:40;;;;;;;2.17;0.30;;;22.70;70.20;;;;;;5096640;28;20039;-65
2024/04/07 10:17:11;;;;;;;3.25;0.22;;;22.80;70.20;;;;;;5084821;28;20085;-66
2024/04/07 10:19:44;;;;;;;8.48;0.65;;;22.90;71.00;;;;;;5094024;28;20062;-67
2024/04/07 10:22:10;;;;;;;4.47;0.40;;;23.00;69.30;;;;;;5096053;28;20035;-66
2024/04/07 10:24:36;;;;;;;2.78;0.30;;;23.00;68.60;;;;;;5089470;28;20040;-65
2024/04/07 10:27:08;;;;;;;2.78;0.32;;;23.10;68.60;;;;;;5089568;28;20115;-64
2024/04/07 10:29:34;;;;;;;1.70;0.20;;;23.10;69.70;;;;;;5092913;28;20059;-65
2024/04/07 10:31:59;;;;;;;4.47;0.43;;;23.10;68.60;;;;;;5101119;28;20043;-65
2024/04/07 10:34:25;;;;;;;2.53;0.38;;;23.20;68.40;;;;;;5115684;28;20049;-64
2024/04/07 10:36:52;;;;;;;4.30;0.40;;;23.30;69.90;;;;;;5094988;28;20102;-65
2024/04/07 10:39:20;;;;;;;2.92;0.40;;;23.40;66.60;;;;;;5120100;27;20100;-65
2024/04/07 10:41:46;;;;;;;2.83;0.35;;;23.50;67.00;;;;;;5115489;28;20066;-65
2024/04/07 10:44:12;;;;;;;4.15;0.35;;;23.60;67.90;;;;;;5120887;28;20499;-64
2024/04/07 10:46:38;;;;;;;3.13;0.20;;;23.70;67.70;;;;;;5114017;28;20073;-65
2024/04/07 10:49:04;;;;;;;1.27;0.13;;;23.80;66.60;;;;;;5114023;28;20046;-64
2024/04/07 10:51:33;;;;;;;3.38;0.30;;;23.90;68.30;;;;;;5099481;28;20531;-65
2024/04/07 10:54:07;;;;;;;3.95;0.30;;;24.00;66.50;;;;;;5116748;28;20039;-64
2024/04/07 10:56:33;;;;;;;10.18;0.80;;;24.00;66.20;;;;;;5076644;28;20040;-65
2024/04/07 10:59:06;;;;;;;2.47;0.20;;;24.10;66.90;;;;;;5112392;28;20034;-64
2024/04/07 11:01:33;;;;;;;1.75;0.20;;;24.30;66.50;;;;;;5114603;28;20027;-64
2024/04/07 11:03:58;;;;;;;1.60;0.20;;;24.30;66.40;;;;;;5109911;28;20367;-65
2024/04/07 11:06:27;;;;;;;1.98;0.30;;;24.40;64.60;;;;;;5113717;28;20047;-64
2024/04/07 11:08:54;;;;;;;8.80;0.70;;;24.50;64.80;;;;;;5118078;28;20031;-65
2024/04/07 11:11:21;;;;;;;4.15;0.20;;;24.60;64.90;;;;;;5116951;28;20114;-64
2024/04/07 11:13:50;;;;;;;5.70;0.30;;;24.70;65.20;;;;;;5115134;28;20083;-64
2024/04/07 11:16:16;;;;;;;3.72;0.30;;;24.70;64.00;;;;;;5110739;28;20040;-64
2024/04/07 11:18:42;;;;;;;2.33;0.20;;;24.70;64.20;;;;;;5119722;28;20509;-64
2024/04/07 11:21:09;;;;;;;3.58;0.28;;;24.80;66.10;;;;;;5100009;28;20047;-64
2024/04/07 11:23:36;;;;;;;3.05;0.38;;;24.60;63.20;;;;;;5112026;28;20419;-65
2024/04/07 11:26:09;;;;;;;2.85;0.30;;;24.50;62.90;;;;;;5119863;28;20059;-65
2024/04/07 11:28:37;;;;;;;4.55;0.40;;;24.40;64.30;;;;;;5091122;28;20027;-65
2024/04/07 11:31:03;;;;;;;3.13;0.30;;;24.40;64.80;;;;;;5099227;28;20035;-65
2024/04/07 11:33:28;;;;;;;4.10;0.38;;;24.40;63.70;;;;;;5099910;28;20055;-65
2024/04/07 11:35:54;;;;;;;4.93;0.38;;;24.50;63.60;;;;;;5103343;28;20023;-66
2024/04/07 11:38:20;;;;;;;4.85;0.40;;;24.60;64.90;;;;;;5111999;28;20047;-64
2024/04/07 11:40:48;;;;;;;2.28;0.20;;;24.70;61.80;;;;;;5113875;28;20140;-65
2024/04/07 11:43:13;;;;;;;2.80;0.20;;;24.70;63.30;;;;;;5118614;27;20027;-65
2024/04/07 11:45:39;;;;;;;3.28;0.20;;;24.80;63.20;;;;;;5126128;28;20347;-66
2024/04/07 11:48:07;;;;;;;2.50;0.20;;;24.80;62.00;;;;;;5116310;28;20027;-65
2024/04/07 11:50:33;;;;;;;8.02;0.60;;;24.80;62.60;;;;;;5119696;28;20491;-65
2024/04/07 11:52:58;;;;;;;2.22;0.22;;;24.80;63.10;;;;;;5112000;28;20114;-64
2024/04/07 11:55:31;;;;;;;2.33;0.20;;;24.90;63.60;;;;;;5106028;28;20204;-64
2024/04/07 11:57:56;;;;;;;4.10;0.40;;;25.00;63.10;;;;;;5103949;28;20035;-65
2024/04/07 12:00:22;;;;;;;4.63;0.25;;;25.10;64.00;;;;;;5120980;28;20182;-65
2024/04/07 12:02:48;;;;;;;4.30;0.30;;;25.20;62.50;;;;;;5120137;28;20044;-65
2024/04/07 12:05:14;;;;;;;3.60;0.30;;;25.30;63.90;;;;;;5116461;28;20621;-65
2024/04/07 12:07:40;;;;;;;4.25;0.28;;;25.30;63.00;;;;;;5109202;28;20643;-65
2024/04/07 12:10:06;;;;;;;2.75;0.40;;;25.40;63.20;;;;;;5108990;28;20044;-65
2024/04/07 12:12:31;;;;;;;4.03;0.30;;;25.40;64.40;;;;;;5117315;28;20035;-65
2024/04/07 12:14:59;;;;;;;1.90;0.30;;;25.50;63.40;;;;;;5108038;28;20111;-64
2024/04/07 12:17:24;;;;;;;4.32;0.40;;;25.50;64.10;;;;;;5112990;27;20382;-65
2024/04/07 12:19:50;;;;;;;4.03;0.40;;;25.60;64.80;;;;;;5109769;28;20031;-65
2024/04/07 12:22:17;;;;;;;4.10;0.40;;;25.60;64.80;;;;;;5105176;28;20066;-65
2024/04/07 12:24:43;;;;;;;2.95;0.28;;;25.80;64.20;;;;;;5105604;28;20503;-65
2024/04/07 12:27:09;;;;;;;4.03;0.30;;;25.80;61.60;;;;;;5109156;28;20595;-65
2024/04/07 12:29:36;;;;;;;6.70;0.40;;;25.80;62.60;;;;;;5108915;28;20035;-65
2024/04/07 12:32:01;;;;;;;2.50;0.50;;;25.80;62.00;;;;;;5114707;28;20508;-65
2024/04/07 12:34:27;;;;;;;4.50;0.30;;;25.80;62.60;;;;;;5113086;28;20039;-66
2024/04/07 12:36:53;;;;;;;2.72;0.20;;;25.90;64.80;;;;;;5093173;28;20023;-66
2024/04/07 12:39:18;;;;;;;3.22;0.30;;;25.80;62.60;;;;;;5098625;28;20032;-65
2024/04/07 12:41:49;;;;;;;3.00;0.30;;;25.80;62.90;;;;;;5105188;28;20028;-66
2024/04/07 12:44:16;;;;;;;5.95;0.35;;;25.70;61.70;;;;;;5111503;28;20047;-64
2024/04/07 12:46:45;;;;;;;;;;;25.60;63.70;;;;;;5108003;27;20366;-65
2024/04/07 12:49:14;;;;;;;1.52;0.13;;;25.70;63.10;;;;;;5112131;28;20469;-65